Time;durP1;ratioP1;P1;durP2;ratioP2;P2;SDS_P1;SDS_P2;PMS_P1;PMS_P2;Temp;Humidity;BMP_temperature;BMP_pressure;BME280_temperature;BME280_humidity;BME280_pressure;Samples;Min_cycle;Max_cycle;Signal;HPM_P1;HPM_P2
2021/04/16 00:01:54;;;;;;;11.57;7.33;;;0.10;85.60;;;;;;5025631;28;20455;-58
2021/04/16 00:04:20;;;;;;;13.70;7.20;;;0.10;85.70;;;;;;5024750;28;20190;-58
2021/04/16 00:06:48;;;;;;;13.57;7.30;;;0.00;85.90;;;;;;5026452;28;20646;-59
2021/04/16 00:09:14;;;;;;;15.60;6.87;;;0.00;86.10;;;;;;5027562;28;20248;-58
2021/04/16 00:11:40;;;;;;;10.80;7.23;;;0.00;86.40;;;;;;5025825;28;20512;-59
2021/04/16 00:14:08;;;;;;;15.90;8.73;;;0.00;86.60;;;;;;5028553;28;20431;-58
2021/04/16 00:16:34;;;;;;;17.10;7.50;;;0.00;86.50;;;;;;5027473;28;20848;-58
2021/04/16 00:19:00;;;;;;;11.10;7.63;;;-0.10;86.20;;;;;;5027879;28;20941;-58
2021/04/16 00:21:27;;;;;;;11.13;7.40;;;-0.10;86.60;;;;;;5026170;28;20201;-58
2021/04/16 00:23:53;;;;;;;11.00;6.60;;;-0.10;87.10;;;;;;5030459;28;20473;-58
2021/04/16 00:26:19;;;;;;;12.87;7.53;;;-0.10;86.90;;;;;;5029406;28;20436;-58
2021/04/16 00:28:44;;;;;;;9.73;6.40;;;-0.10;87.00;;;;;;5029401;28;20192;-58
2021/04/16 00:31:15;;;;;;;10.30;6.53;;;-0.20;87.20;;;;;;5029556;28;20379;-58
2021/04/16 00:33:41;;;;;;;8.87;6.37;;;-0.20;87.20;;;;;;5031690;28;20174;-59
2021/04/16 00:36:08;;;;;;;8.83;6.47;;;-0.20;86.90;;;;;;5031336;28;20422;-58
2021/04/16 00:38:34;;;;;;;11.70;5.83;;;-0.20;86.80;;;;;;5028717;28;20947;-58
2021/04/16 00:41:02;;;;;;;16.33;7.17;;;-0.30;87.00;;;;;;5031061;28;20464;-58
2021/04/16 00:43:31;;;;;;;11.60;7.40;;;-0.30;87.60;;;;;;5028900;28;20193;-59
2021/04/16 00:46:12;;;;;;;9.27;6.80;;;-0.30;87.90;;;;;;5029938;28;20428;-59
2021/04/16 00:49:00;;;;;;;12.30;6.90;;;-0.30;88.20;;;;;;5031357;28;20621;-58
2021/04/16 00:51:35;;;;;;;11.80;6.23;;;-0.30;88.10;;;;;;5030660;28;20550;-58
2021/04/16 00:54:02;;;;;;;22.83;7.17;;;-0.30;88.00;;;;;;5029700;28;20612;-59
2021/04/16 00:56:29;;;;;;;9.73;6.67;;;-0.40;88.00;;;;;;5026792;28;20531;-58
2021/04/16 00:58:55;;;;;;;12.07;6.13;;;-0.40;88.20;;;;;;5030463;28;20431;-59
2021/04/16 01:01:22;;;;;;;11.83;6.00;;;-0.40;88.40;;;;;;5029110;28;20820;-58
2021/04/16 01:03:49;;;;;;;10.10;6.27;;;-0.40;88.30;;;;;;5029393;28;20201;-59
2021/04/16 01:06:14;;;;;;;12.83;6.40;;;-0.40;88.00;;;;;;5031435;28;20554;-58
2021/04/16 01:08:42;;;;;;;12.93;6.67;;;-0.50;88.00;;;;;;5031212;28;20894;-58
2021/04/16 01:11:08;;;;;;;9.13;5.80;;;-0.50;88.80;;;;;;5028955;28;20551;-58
2021/04/16 01:13:38;;;;;;;9.73;6.20;;;-0.50;88.60;;;;;;5028151;28;20496;-59
2021/04/16 01:16:09;;;;;;;11.57;6.70;;;-0.50;88.90;;;;;;5028185;28;20774;-58
2021/04/16 01:18:39;;;;;;;9.63;6.70;;;-0.60;89.60;;;;;;5029446;28;20508;-58
2021/04/16 01:21:18;;;;;;;11.00;6.20;;;-0.60;90.00;;;;;;5026121;28;20835;-58
2021/04/16 01:24:03;;;;;;;14.23;6.73;;;-0.60;89.80;;;;;;5031412;28;20422;-58
2021/04/16 01:26:41;;;;;;;10.10;6.17;;;-0.60;89.60;;;;;;5028679;28;20435;-58
2021/04/16 01:29:07;;;;;;;9.73;6.40;;;-0.60;89.30;;;;;;5027327;28;20428;-59
2021/04/16 01:31:33;;;;;;;10.67;6.70;;;-0.60;89.20;;;;;;5030968;28;20430;-59
2021/04/16 01:33:59;;;;;;;11.73;7.00;;;-0.60;88.80;;;;;;5028427;28;20436;-59
2021/04/16 01:36:27;;;;;;;10.47;6.63;;;-0.60;88.80;;;;;;5028505;28;20186;-59
2021/04/16 01:38:56;;;;;;;12.53;5.97;;;-0.60;88.90;;;;;;5028807;28;20519;-58
2021/04/16 01:41:24;;;;;;;7.90;5.67;;;-0.70;88.50;;;;;;5030741;28;20456;-60
2021/04/16 01:44:09;;;;;;;10.93;6.20;;;-0.70;88.20;;;;;;5028992;28;20443;-59
2021/04/16 01:46:54;;;;;;;9.87;5.60;;;-0.70;88.20;;;;;;5029696;28;20452;-58
2021/04/16 01:49:21;;;;;;;10.37;6.93;;;-0.80;88.70;;;;;;5026404;28;20455;-59
2021/04/16 01:51:48;;;;;;;13.53;7.00;;;-0.80;89.00;;;;;;5026434;28;20440;-58
2021/04/16 01:54:24;;;;;;;11.10;6.87;;;-0.80;89.00;;;;;;5031105;28;20836;-58
2021/04/16 01:56:58;;;;;;;10.10;6.60;;;-0.80;89.00;;;;;;5027880;28;20490;-59
2021/04/16 01:59:27;;;;;;;9.83;5.90;;;-0.80;88.90;;;;;;5030499;28;20818;-59
2021/04/16 02:01:53;;;;;;;9.67;5.50;;;-0.80;88.70;;;;;;5029157;28;20483;-58
2021/04/16 02:04:20;;;;;;;8.60;5.77;;;-0.80;88.80;;;;;;5028553;28;20429;-57
2021/04/16 02:06:46;;;;;;;9.07;6.40;;;-0.90;88.00;;;;;;5028113;28;20431;-58
2021/04/16 02:09:15;;;;;;;8.93;5.10;;;-0.90;88.00;;;;;;5029088;28;20976;-58
2021/04/16 02:11:43;;;;;;;7.90;5.37;;;-0.90;87.60;;;;;;5027454;28;20475;-58
2021/04/16 02:14:13;;;;;;;9.13;6.10;;;-0.80;87.50;;;;;;5029632;28;20941;-58
2021/04/16 02:16:39;;;;;;;8.30;5.13;;;-0.90;86.90;;;;;;5024364;28;20787;-57
2021/04/16 02:19:05;;;;;;;7.53;4.70;;;-0.90;87.30;;;;;;5029401;28;20466;-58
2021/04/16 02:21:32;;;;;;;9.60;5.37;;;-0.90;87.10;;;;;;5028211;28;20472;-58
2021/04/16 02:23:58;;;;;;;8.30;4.30;;;-0.80;87.40;;;;;;5028122;28;20507;-58
2021/04/16 02:26:24;;;;;;;6.27;5.33;;;-0.90;86.70;;;;;;5029921;28;20430;-58
2021/04/16 02:28:49;;;;;;;5.60;4.57;;;-0.90;86.60;;;;;;5025028;28;20432;-62
2021/04/16 02:31:15;;;;;;;8.13;5.27;;;-0.90;86.80;;;;;;5027565;28;20645;-58
2021/04/16 02:33:42;;;;;;;10.73;4.63;;;-0.90;86.60;;;;;;5025553;28;20229;-58
2021/04/16 02:36:08;;;;;;;8.60;5.20;;;-0.90;86.30;;;;;;5022209;28;20852;-58
2021/04/16 02:38:33;;;;;;;9.67;4.63;;;-0.90;86.20;;;;;;5024922;28;20496;-58
2021/04/16 02:40:59;;;;;;;7.30;5.20;;;-0.80;86.10;;;;;;5025552;28;20693;-58
2021/04/16 02:43:25;;;;;;;5.70;4.27;;;-0.80;85.70;;;;;;5026104;28;20194;-59
2021/04/16 02:45:50;;;;;;;6.50;4.70;;;-0.80;85.90;;;;;;5026267;28;20177;-58
2021/04/16 02:48:16;;;;;;;6.90;4.80;;;-0.80;86.10;;;;;;5025178;28;20208;-58
2021/04/16 02:50:42;;;;;;;7.20;4.90;;;-0.80;86.40;;;;;;5026734;28;20216;-58
2021/04/16 02:53:08;;;;;;;5.97;4.57;;;-0.80;86.50;;;;;;5025604;28;20489;-58
2021/04/16 02:55:33;;;;;;;5.93;4.53;;;-0.80;86.50;;;;;;5026943;28;20598;-58
2021/04/16 02:57:59;;;;;;;6.73;4.77;;;-0.80;86.20;;;;;;5026893;28;20615;-58
2021/04/16 03:00:28;;;;;;;7.63;4.90;;;-0.80;86.10;;;;;;5024548;28;20236;-59
2021/04/16 03:02:54;;;;;;;7.60;4.60;;;-0.80;86.00;;;;;;5026499;28;20214;-59
2021/04/16 03:05:21;;;;;;;9.53;5.17;;;-0.70;85.80;;;;;;5022434;28;20456;-59
2021/04/16 03:07:46;;;;;;;7.43;4.27;;;-0.80;85.50;;;;;;5021306;28;20437;-58
2021/04/16 03:10:14;;;;;;;6.30;4.90;;;-0.80;85.20;;;;;;5027875;28;21004;-59
2021/04/16 03:12:40;;;;;;;5.20;4.70;;;-0.80;85.60;;;;;;5021589;28;20258;-58
2021/04/16 03:15:07;;;;;;;5.93;4.50;;;-0.80;85.60;;;;;;5027578;28;20534;-58
2021/04/16 03:17:33;;;;;;;5.43;4.33;;;-0.80;85.80;;;;;;5028749;28;20236;-58
2021/04/16 03:19:59;;;;;;;6.47;4.30;;;-0.80;85.60;;;;;;5025839;28;20536;-58
2021/04/16 03:22:25;;;;;;;6.37;4.30;;;-0.80;85.60;;;;;;5080504;22;20612;-54
2021/04/16 03:24:50;;;;;;;7.47;4.43;;;-0.80;85.30;;;;;;5080888;28;20246;-52
2021/04/16 03:27:16;;;;;;;6.30;4.53;;;-0.80;85.90;;;;;;5069805;28;20180;-52
2021/04/16 03:29:41;;;;;;;5.60;4.83;;;-0.80;85.80;;;;;;5086679;28;20583;-54
2021/04/16 03:32:07;;;;;;;8.73;5.10;;;-0.80;85.60;;;;;;5078417;28;20195;-54
2021/04/16 03:34:33;;;;;;;6.70;4.83;;;-0.80;85.20;;;;;;5082671;28;20230;-50
2021/04/16 03:36:58;;;;;;;6.63;4.90;;;-0.80;85.30;;;;;;5076920;28;20303;-52
2021/04/16 03:39:24;;;;;;;7.10;4.43;;;-0.80;85.20;;;;;;5085737;28;20182;-52
2021/04/16 03:41:51;;;;;;;7.37;5.27;;;-0.80;85.30;;;;;;5083840;28;20257;-52
2021/04/16 03:44:17;;;;;;;6.23;4.30;;;-0.80;85.20;;;;;;5080688;28;20668;-51
2021/04/16 03:46:42;;;;;;;5.63;4.40;;;-0.80;85.60;;;;;;5081853;28;20495;-51
2021/04/16 03:49:09;;;;;;;6.97;4.37;;;-0.80;85.70;;;;;;5084752;28;20285;-54
2021/04/16 03:51:55;;;;;;;8.63;5.37;;;-0.80;85.70;;;;;;5084212;28;20281;-53
2021/04/16 03:54:22;;;;;;;10.73;5.47;;;-0.80;86.10;;;;;;5077968;28;20462;-51
2021/04/16 03:56:48;;;;;;;5.90;4.57;;;-0.80;86.10;;;;;;5083740;28;20511;-51
2021/04/16 03:59:15;;;;;;;8.03;5.60;;;-0.80;86.30;;;;;;5089120;28;20425;-50
2021/04/16 04:01:41;;;;;;;8.47;4.67;;;-0.80;86.40;;;;;;5088133;28;20544;-53
2021/04/16 04:04:07;;;;;;;17.93;5.80;;;-0.80;86.30;;;;;;5086598;28;20516;-52
2021/04/16 04:06:32;;;;;;;12.10;7.00;;;-0.80;86.70;;;;;;5096172;28;20265;-54
2021/04/16 04:08:59;;;;;;;10.70;6.47;;;-0.90;86.60;;;;;;5099729;28;20171;-52
2021/04/16 04:11:24;;;;;;;15.60;8.30;;;-0.90;86.70;;;;;;5078707;28;20193;-51
2021/04/16 04:13:50;;;;;;;15.00;7.80;;;-0.80;86.70;;;;;;5084787;28;20435;-52
2021/04/16 04:16:16;;;;;;;13.27;6.83;;;-0.90;86.40;;;;;;5088229;28;20184;-51
2021/04/16 04:18:42;;;;;;;13.27;6.30;;;-0.90;86.80;;;;;;5084832;28;21023;-52
2021/04/16 04:21:07;;;;;;;14.07;6.37;;;-0.90;87.60;;;;;;5083373;28;20200;-53
2021/04/16 04:23:33;;;;;;;9.17;5.70;;;-0.90;87.70;;;;;;5094822;28;20256;-51
2021/04/16 04:25:59;;;;;;;10.00;5.90;;;-0.90;87.80;;;;;;5089253;28;20698;-51
2021/04/16 04:28:25;;;;;;;9.30;6.10;;;-0.90;88.40;;;;;;5085314;28;20238;-50
2021/04/16 04:30:51;;;;;;;10.07;5.80;;;-0.90;88.30;;;;;;5083624;28;20555;-51
2021/04/16 04:33:16;;;;;;;8.70;6.13;;;-0.90;89.00;;;;;;5083479;28;21125;-53
2021/04/16 04:35:42;;;;;;;7.30;5.63;;;-0.90;89.60;;;;;;5082173;28;20183;-54
2021/04/16 04:38:08;;;;;;;7.70;5.47;;;-0.90;89.70;;;;;;5088422;28;20252;-54
2021/04/16 04:40:34;;;;;;;9.07;5.30;;;-0.80;89.90;;;;;;5083528;28;20246;-52
2021/04/16 04:43:00;;;;;;;8.73;5.37;;;-0.80;89.90;;;;;;5083934;28;20527;-51
2021/04/16 04:45:26;;;;;;;17.70;5.57;;;-0.80;89.70;;;;;;5086020;28;20513;-55
2021/04/16 04:47:52;;;;;;;10.60;6.33;;;-0.80;89.80;;;;;;5084768;28;20433;-55
2021/04/16 04:50:20;;;;;;;8.20;5.93;;;-0.70;89.80;;;;;;5085446;28;20450;-54
2021/04/16 04:52:46;;;;;;;11.30;6.47;;;-0.70;89.80;;;;;;5081265;28;20479;-55
2021/04/16 04:55:22;;;;;;;9.50;6.13;;;-0.70;89.70;;;;;;5079998;28;22575;-56
2021/04/16 04:57:48;;;;;;;9.40;5.90;;;-0.70;89.70;;;;;;5086616;28;20444;-53
2021/04/16 05:00:15;;;;;;;11.60;6.80;;;-0.70;89.80;;;;;;5086058;28;20846;-52
2021/04/16 05:02:44;;;;;;;8.93;6.40;;;-0.70;89.70;;;;;;5084500;28;20792;-54
2021/04/16 05:05:12;;;;;;;12.53;7.07;;;-0.70;89.80;;;;;;5083111;28;20495;-53
2021/04/16 05:07:37;;;;;;;10.90;7.13;;;-0.60;89.80;;;;;;5078010;28;20522;-52
2021/04/16 05:10:05;;;;;;;10.67;6.70;;;-0.60;89.80;;;;;;5079916;28;20855;-53
2021/04/16 05:12:31;;;;;;;10.70;7.43;;;-0.60;90.00;;;;;;5079847;28;20282;-56
2021/04/16 05:14:56;;;;;;;17.00;7.13;;;-0.60;90.00;;;;;;5080916;28;20522;-53
2021/04/16 05:17:22;;;;;;;13.90;7.00;;;-0.50;90.00;;;;;;5080381;28;20754;-52
2021/04/16 05:19:48;;;;;;;10.57;6.87;;;-0.40;90.00;;;;;;5080206;28;20186;-53
2021/04/16 05:22:14;;;;;;;10.03;6.53;;;-0.30;90.10;;;;;;5084151;28;22117;-55
2021/04/16 05:24:39;;;;;;;12.50;6.00;;;-0.30;90.00;;;;;;5086026;28;20239;-55
2021/04/16 05:27:09;;;;;;;15.37;7.17;;;-0.10;90.00;;;;;;5082399;28;20466;-53
2021/04/16 05:29:35;;;;;;;11.87;6.20;;;-0.10;89.70;;;;;;5079839;28;20175;-54
2021/04/16 05:32:02;;;;;;;14.10;6.43;;;0.00;89.50;;;;;;5084888;28;20842;-52
2021/04/16 05:34:30;;;;;;;9.10;5.90;;;0.10;89.50;;;;;;5085414;28;20180;-53
2021/04/16 05:36:56;;;;;;;11.20;6.43;;;0.30;89.30;;;;;;5078786;28;20567;-56
2021/04/16 05:39:22;;;;;;;11.10;6.40;;;0.40;88.60;;;;;;5078905;28;20520;-53
2021/04/16 05:41:47;;;;;;;10.90;6.10;;;0.50;88.40;;;;;;5083463;28;20487;-52
2021/04/16 05:44:13;;;;;;;8.70;5.90;;;0.50;88.70;;;;;;5085407;28;20950;-55
2021/04/16 05:46:39;;;;;;;11.40;6.00;;;0.70;88.20;;;;;;5087953;28;20667;-53
2021/04/16 05:49:05;;;;;;;9.47;6.67;;;0.80;88.00;;;;;;5084949;28;20233;-54
2021/04/16 05:51:31;;;;;;;11.20;6.17;;;0.80;87.50;;;;;;5088358;28;20607;-54
2021/04/16 05:53:56;;;;;;;8.97;5.80;;;1.00;87.00;;;;;;5082466;28;21237;-53
2021/04/16 05:56:22;;;;;;;6.70;5.60;;;1.10;86.40;;;;;;5088156;28;20512;-54
2021/04/16 05:58:48;;;;;;;7.57;5.47;;;1.20;85.60;;;;;;5089101;28;21042;-53
2021/04/16 06:01:14;;;;;;;11.90;6.43;;;1.30;85.10;;;;;;5086214;28;20231;-54
2021/04/16 06:03:42;;;;;;;6.90;5.53;;;1.40;84.30;;;;;;5085758;28;20287;-55
2021/04/16 06:06:07;;;;;;;9.27;6.33;;;1.60;84.30;;;;;;5085260;28;20433;-53
2021/04/16 06:08:33;;;;;;;8.37;5.70;;;1.60;83.20;;;;;;5088892;28;20425;-53
2021/04/16 06:10:59;;;;;;;9.80;6.10;;;1.70;83.20;;;;;;5085108;28;20198;-53
2021/04/16 06:13:26;;;;;;;6.70;5.67;;;1.80;82.10;;;;;;5086699;28;20183;-53
2021/04/16 06:15:52;;;;;;;8.57;5.60;;;1.80;82.60;;;;;;5088071;28;20505;-53
2021/04/16 06:18:20;;;;;;;6.10;5.50;;;1.90;82.20;;;;;;5087695;28;20422;-53
2021/04/16 06:20:45;;;;;;;11.10;6.37;;;2.00;81.10;;;;;;5081171;28;20456;-56
2021/04/16 06:23:11;;;;;;;9.10;6.13;;;2.10;80.60;;;;;;5087325;28;20438;-56
2021/04/16 06:25:37;;;;;;;9.17;5.93;;;2.10;79.80;;;;;;5085595;28;20694;-55
2021/04/16 06:28:04;;;;;;;5.83;5.03;;;2.20;79.30;;;;;;5086827;28;20222;-54
2021/04/16 06:30:30;;;;;;;8.20;5.50;;;2.30;78.80;;;;;;5081688;28;20274;-53
2021/04/16 06:33:14;;;;;;;6.30;5.20;;;2.40;77.30;;;;;;5088183;28;20535;-53
2021/04/16 06:35:47;;;;;;;6.60;5.90;;;2.40;77.10;;;;;;5085602;28;20421;-53
2021/04/16 06:38:16;;;;;;;11.03;6.00;;;2.40;76.70;;;;;;5085594;28;21159;-55
2021/04/16 06:40:48;;;;;;;11.10;5.50;;;2.50;77.50;;;;;;5082693;28;20461;-54
2021/04/16 06:43:14;;;;;;;11.90;6.43;;;2.70;75.40;;;;;;5084124;28;20574;-54
2021/04/16 06:45:39;;;;;;;8.80;5.27;;;2.80;74.40;;;;;;5084303;28;20448;-55
2021/04/16 06:48:08;;;;;;;6.97;5.07;;;2.90;73.80;;;;;;5083693;28;20427;-55
2021/04/16 06:50:40;;;;;;;7.67;5.50;;;2.90;72.40;;;;;;5082498;28;20571;-55
2021/04/16 06:53:18;;;;;;;7.20;5.20;;;3.00;72.00;;;;;;5079511;28;20480;-55
2021/04/16 06:56:12;;;;;;;5.63;5.03;;;3.00;71.70;;;;;;5080659;28;20445;-53
2021/04/16 06:59:07;;;;;;;7.10;5.20;;;3.10;70.70;;;;;;5082304;28;20444;-57
2021/04/16 07:01:57;;;;;;;7.60;5.40;;;3.20;69.90;;;;;;5082961;28;20464;-53
2021/04/16 07:04:44;;;;;;;5.30;4.73;;;3.20;66.70;;;;;;5080274;28;20424;-56
2021/04/16 07:07:28;;;;;;;6.13;5.20;;;3.20;66.80;;;;;;5077100;28;20468;-55
2021/04/16 07:10:03;;;;;;;6.03;5.13;;;3.20;66.10;;;;;;5084980;28;20506;-55
2021/04/16 07:12:29;;;;;;;9.17;4.87;;;3.20;67.80;;;;;;5073105;28;20489;-56
2021/04/16 07:14:58;;;;;;;7.27;5.50;;;3.30;70.60;;;;;;5077767;28;20878;-55
2021/04/16 07:17:28;;;;;;;9.97;5.50;;;3.40;72.80;;;;;;5076696;28;20445;-59
2021/04/16 07:19:55;;;;;;;6.27;5.53;;;3.60;71.40;;;;;;5081160;28;20471;-54
2021/04/16 07:22:51;;;;;;;6.00;4.97;;;3.80;67.10;;;;;;5077493;28;20479;-53
2021/04/16 07:25:41;;;;;;;6.60;5.30;;;3.80;63.10;;;;;;5082506;28;20498;-52
2021/04/16 07:28:10;;;;;;;8.67;5.07;;;3.80;61.70;;;;;;5083355;28;20800;-54
2021/04/16 07:30:50;;;;;;;5.07;4.57;;;3.80;61.90;;;;;;5080783;28;20545;-55
2021/04/16 07:33:31;;;;;;;7.73;5.10;;;3.80;61.80;;;;;;5080167;28;20596;-56
2021/04/16 07:36:31;;;;;;;9.93;4.43;;;3.90;61.80;;;;;;5079580;28;20467;-52
2021/04/16 07:39:01;;;;;;;5.53;4.70;;;3.90;60.90;;;;;;5086383;28;20429;-51
2021/04/16 07:41:31;;;;;;;4.93;4.13;;;3.90;59.20;;;;;;5087210;28;20497;-52
2021/04/16 07:43:59;;;;;;;7.13;4.77;;;3.90;59.90;;;;;;5087331;28;20454;-52
2021/04/16 07:46:25;;;;;;;5.67;5.07;;;3.90;59.90;;;;;;5079257;28;20423;-52
2021/04/16 07:48:51;;;;;;;7.30;4.70;;;3.90;58.30;;;;;;5085981;28;20428;-52
2021/04/16 07:51:31;;;;;;;4.83;4.20;;;3.90;58.20;;;;;;5083587;28;20201;-52
2021/04/16 07:54:18;;;;;;;5.73;4.90;;;4.00;58.00;;;;;;5082715;28;20514;-54
2021/04/16 07:56:44;;;;;;;4.93;4.43;;;4.20;57.30;;;;;;5082268;28;20430;-54
2021/04/16 07:59:16;;;;;;;5.70;4.67;;;4.20;56.30;;;;;;5085839;28;20522;-53
2021/04/16 08:01:47;;;;;;;5.80;4.00;;;4.30;55.60;;;;;;5082761;28;20463;-54
2021/04/16 08:04:19;;;;;;;6.37;4.57;;;4.40;54.90;;;;;;5082044;28;20511;-54
2021/04/16 08:06:51;;;;;;;6.80;4.60;;;4.50;54.10;;;;;;5086139;28;20431;-53
2021/04/16 08:09:30;;;;;;;8.53;4.73;;;4.60;54.60;;;;;;5085770;28;20451;-54
2021/04/16 08:12:08;;;;;;;5.80;4.23;;;4.70;54.30;;;;;;5081956;28;20491;-53
2021/04/16 08:14:36;;;;;;;5.10;4.57;;;4.80;54.00;;;;;;5084609;28;20913;-56
2021/04/16 08:17:23;;;;;;;6.93;5.13;;;4.90;53.70;;;;;;5075613;28;20562;-55
2021/04/16 08:19:50;;;;;;;4.80;4.30;;;4.90;53.10;;;;;;5079525;28;20442;-56
2021/04/16 08:22:33;;;;;;;7.13;4.70;;;5.00;53.00;;;;;;5082615;28;20467;-57
2021/04/16 08:25:03;;;;;;;5.10;3.93;;;5.10;52.20;;;;;;5078452;28;20423;-53
2021/04/16 08:27:43;;;;;;;6.80;3.90;;;5.10;51.10;;;;;;5081424;28;20452;-53
2021/04/16 08:30:50;;;;;;;6.87;4.30;;;5.20;50.80;;;;;;5082959;28;20523;-54
2021/04/16 08:33:37;;;;;;;5.40;3.97;;;5.30;50.80;;;;;;5082981;28;20497;-56
2021/04/16 08:36:47;;;;;;;6.33;4.57;;;5.50;50.70;;;;;;5077965;28;20454;-55
2021/04/16 08:39:33;;;;;;;4.57;4.17;;;5.50;50.00;;;;;;5079225;28;20431;-54
2021/04/16 08:42:04;;;;;;;4.60;4.20;;;5.60;50.30;;;;;;5078046;28;20781;-54
2021/04/16 08:44:40;;;;;;;5.17;4.30;;;5.60;49.60;;;;;;5077868;28;20453;-55
2021/04/16 08:47:11;;;;;;;5.70;4.33;;;5.70;49.50;;;;;;5082830;28;20836;-54
2021/04/16 08:49:36;;;;;;;5.63;4.20;;;5.70;49.30;;;;;;5083705;28;20439;-54
2021/04/16 08:52:17;;;;;;;5.10;4.00;;;5.80;49.10;;;;;;5079527;28;20470;-54
2021/04/16 08:54:45;;;;;;;4.27;3.87;;;5.90;48.80;;;;;;5088318;28;20178;-54
2021/04/16 08:57:35;;;;;;;5.60;4.67;;;6.00;49.20;;;;;;5087592;28;20458;-55
2021/04/16 09:00:17;;;;;;;5.00;4.50;;;6.10;49.60;;;;;;5080758;28;20539;-53
2021/04/16 09:02:43;;;;;;;4.20;3.80;;;6.20;48.80;;;;;;5083362;28;20471;-53
2021/04/16 09:05:23;;;;;;;5.23;3.90;;;6.20;48.30;;;;;;5083990;28;20443;-53
2021/04/16 09:08:07;;;;;;;4.87;4.37;;;6.30;47.80;;;;;;5086216;28;20222;-53
2021/04/16 09:10:48;;;;;;;9.43;4.30;;;6.50;47.70;;;;;;5085388;28;20510;-54
2021/04/16 09:13:40;;;;;;;6.60;4.60;;;6.60;47.10;;;;;;5082611;28;20427;-54
2021/04/16 09:16:15;;;;;;;4.10;3.70;;;6.60;46.60;;;;;;5082513;28;20438;-55
2021/04/16 09:18:42;;;;;;;6.03;4.57;;;6.50;46.90;;;;;;5077595;28;20520;-55
2021/04/16 09:21:19;;;;;;;3.30;3.00;;;6.50;48.00;;;;;;5084523;28;20518;-55
2021/04/16 09:23:47;;;;;;;6.20;4.37;;;6.60;47.80;;;;;;5082644;28;20424;-52
2021/04/16 09:26:48;;;;;;;4.70;4.30;;;6.70;47.40;;;;;;5084711;28;20508;-54
2021/04/16 09:29:26;;;;;;;6.80;4.80;;;6.70;47.00;;;;;;5081255;28;20466;-53
2021/04/16 09:32:04;;;;;;;4.83;3.50;;;6.80;47.10;;;;;;5103158;22;20463;-58
2021/04/16 09:34:45;;;;;;;4.20;3.80;;;6.80;47.10;;;;;;5043181;28;21062;-60
2021/04/16 09:37:33;;;;;;;7.17;4.37;;;6.60;45.40;;;;;;5044305;28;20904;-59
2021/04/16 09:40:22;;;;;;;6.43;4.20;;;6.40;45.50;;;;;;5044621;28;20430;-60
2021/04/16 09:42:59;;;;;;;5.03;4.40;;;6.20;46.40;;;;;;5041667;28;20462;-60
2021/04/16 09:45:28;;;;;;;4.07;3.67;;;6.20;46.70;;;;;;5027465;28;20451;-58
2021/04/16 09:48:05;;;;;;;8.23;4.57;;;6.40;47.20;;;;;;5026399;28;20770;-58
2021/04/16 09:50:41;;;;;;;4.33;3.93;;;6.40;46.50;;;;;;5026036;28;20461;-59
2021/04/16 09:53:15;;;;;;;6.67;3.70;;;6.60;46.60;;;;;;5026877;28;20970;-60
2021/04/16 09:55:45;;;;;;;4.33;3.93;;;6.80;46.60;;;;;;5022135;28;20458;-59
2021/04/16 09:58:32;;;;;;;4.23;3.83;;;7.00;45.90;;;;;;5028693;28;20430;-58
2021/04/16 10:01:00;;;;;;;6.20;4.33;;;7.20;45.60;;;;;;5040461;28;20481;-60
2021/04/16 10:03:51;;;;;;;4.50;4.10;;;7.40;45.00;;;;;;5026322;28;20438;-60
2021/04/16 10:06:28;;;;;;;4.80;4.20;;;7.40;44.50;;;;;;5027518;28;20498;-59
2021/04/16 10:09:24;;;;;;;6.13;4.10;;;7.20;44.10;;;;;;5026784;28;20418;-58
2021/04/16 10:11:55;;;;;;;7.17;4.13;;;7.10;44.60;;;;;;5029989;28;20515;-58
2021/04/16 10:14:23;;;;;;;4.60;3.60;;;7.10;44.60;;;;;;5026627;28;20430;-58
2021/04/16 10:17:04;;;;;;;4.20;3.80;;;7.10;44.70;;;;;;5027583;28;20954;-58
2021/04/16 10:19:36;;;;;;;4.83;3.90;;;7.30;45.40;;;;;;5025233;28;20453;-58
2021/04/16 10:22:26;;;;;;;11.00;4.10;;;7.60;44.90;;;;;;5029020;28;20511;-58
2021/04/16 12:38:59;;;;;;;3.97;3.57;;;9.40;38.60;;;;;;5030324;28;20429;-60
2021/04/16 12:41:31;;;;;;;4.33;3.53;;;9.90;37.90;;;;;;5030458;28;20493;-61
2021/04/16 12:44:02;;;;;;;4.67;3.33;;;10.20;35.90;;;;;;5031865;28;20454;-62
2021/04/16 12:46:37;;;;;;;4.07;3.60;;;10.40;35.10;;;;;;5029230;28;20434;-61
2021/04/16 12:49:04;;;;;;;6.80;4.33;;;10.30;34.10;;;;;;5032138;28;20439;-61
2021/04/16 12:51:29;;;;;;;4.40;3.50;;;10.10;33.90;;;;;;5030345;28;20520;-61
2021/04/16 12:53:55;;;;;;;6.50;3.50;;;9.90;35.10;;;;;;5032487;28;20553;-61
2021/04/16 12:56:36;;;;;;;4.90;3.43;;;10.30;35.60;;;;;;5031833;28;20245;-61
2021/04/16 12:59:09;;;;;;;5.50;3.50;;;10.40;33.80;;;;;;5028307;28;20176;-61
2021/04/16 13:01:34;;;;;;;6.30;3.97;;;10.10;33.50;;;;;;5028864;28;20867;-61
2021/04/16 13:04:00;;;;;;;5.17;3.60;;;9.90;34.80;;;;;;5032419;28;20446;-60
2021/04/16 13:06:39;;;;;;;4.00;3.53;;;9.90;36.10;;;;;;5027662;28;20218;-62
2021/04/16 13:09:10;;;;;;;5.27;3.60;;;9.60;36.00;;;;;;5025882;28;20233;-60
2021/04/16 13:11:37;;;;;;;5.23;3.00;;;9.40;36.50;;;;;;5029831;28;20525;-61
2021/04/16 13:14:04;;;;;;;4.77;3.70;;;9.10;36.30;;;;;;5026722;28;20466;-61
2021/04/16 13:16:30;;;;;;;5.80;3.83;;;8.90;36.80;;;;;;5025513;28;20486;-61
2021/04/16 13:18:59;;;;;;;6.57;3.60;;;8.70;36.90;;;;;;5022852;28;20524;-62
2021/04/16 13:21:32;;;;;;;3.60;3.30;;;8.60;37.30;;;;;;5022515;28;20469;-61
2021/04/16 13:23:58;;;;;;;4.80;4.00;;;8.50;37.60;;;;;;5028299;28;20462;-61
2021/04/16 13:26:25;;;;;;;6.43;3.33;;;8.60;37.90;;;;;;5030001;28;20434;-63
2021/04/16 13:28:51;;;;;;;4.00;3.50;;;8.80;38.30;;;;;;5040241;28;20520;-61
2021/04/16 13:31:17;;;;;;;4.10;3.30;;;9.00;37.80;;;;;;5028778;28;20434;-61
2021/04/16 13:33:45;;;;;;;3.87;3.30;;;9.40;37.30;;;;;;5025962;28;20466;-60
2021/04/16 13:36:19;;;;;;;3.87;3.37;;;9.60;36.00;;;;;;5027009;28;20430;-61
2021/04/16 13:38:46;;;;;;;4.33;3.60;;;9.60;35.30;;;;;;5026676;28;20426;-61
2021/04/16 13:41:13;;;;;;;7.73;4.57;;;9.70;36.10;;;;;;5026176;28;20462;-61
2021/04/16 13:43:39;;;;;;;4.07;3.60;;;9.70;36.00;;;;;;5026197;28;20462;-60
2021/04/16 13:46:11;;;;;;;6.50;4.10;;;10.10;35.70;;;;;;5027694;28;20430;-61
2021/04/16 13:48:38;;;;;;;4.67;3.80;;;10.60;36.10;;;;;;5021548;28;20434;-63
2021/04/16 13:51:05;;;;;;;9.20;3.67;;;11.00;34.70;;;;;;5022225;28;20446;-59
2021/04/16 13:53:30;;;;;;;3.23;3.00;;;11.00;34.10;;;;;;5026242;28;20466;-62
2021/04/16 13:55:56;;;;;;;6.07;3.90;;;10.60;33.70;;;;;;5020742;28;20452;-61
2021/04/16 13:58:22;;;;;;;4.53;3.63;;;10.30;34.60;;;;;;5021757;28;20680;-61
2021/04/16 14:00:48;;;;;;;11.33;4.30;;;9.90;35.60;;;;;;5022298;28;20458;-61
2021/04/16 14:03:31;;;;;;;7.37;3.97;;;9.60;35.90;;;;;;5018488;28;20286;-61
2021/04/16 14:05:59;;;;;;;4.67;4.17;;;9.30;36.20;;;;;;5039297;28;20187;-60
2021/04/16 14:08:28;;;;;;;5.37;4.00;;;9.50;36.80;;;;;;5021175;28;20480;-61
2021/04/16 14:10:53;;;;;;;7.40;4.27;;;9.90;36.60;;;;;;5027924;28;20446;-60
2021/04/16 14:13:20;;;;;;;4.37;3.97;;;10.00;34.40;;;;;;5022803;28;20981;-61
2021/04/16 14:15:45;;;;;;;4.70;3.67;;;9.80;34.70;;;;;;5029252;28;20438;-61
2021/04/16 14:18:32;;;;;;;4.90;3.70;;;9.60;34.70;;;;;;5026021;28;20530;-60
2021/04/16 14:20:58;;;;;;;4.57;3.73;;;9.40;35.00;;;;;;5019828;28;20218;-61
2021/04/16 14:23:24;;;;;;;5.13;3.90;;;9.30;35.80;;;;;;5023040;28;20462;-60
2021/04/16 14:25:51;;;;;;;4.50;3.60;;;9.40;36.90;;;;;;5041650;28;20465;-61
2021/04/16 14:28:18;;;;;;;9.37;3.70;;;9.80;37.10;;;;;;5025692;28;20435;-60
2021/04/16 14:30:45;;;;;;;7.33;4.10;;;10.40;35.60;;;;;;5020156;28;20484;-61
2021/04/16 14:33:22;;;;;;;4.90;3.60;;;11.20;35.90;;;;;;5037525;28;20473;-62
2021/04/16 14:35:48;;;;;;;7.00;4.03;;;11.70;34.10;;;;;;5022579;28;20462;-61
2021/04/16 14:38:14;;;;;;;6.60;5.10;;;11.60;32.80;;;;;;5024747;28;20458;-61
2021/04/16 14:40:40;;;;;;;4.20;3.30;;;11.30;32.70;;;;;;5029385;28;20356;-61
2021/04/16 14:43:08;;;;;;;5.00;4.17;;;11.50;33.50;;;;;;5023965;28;21049;-61
2021/04/16 14:45:37;;;;;;;5.27;3.77;;;11.50;32.90;;;;;;5022524;28;20176;-60
2021/04/16 14:48:07;;;;;;;4.57;3.50;;;11.60;33.30;;;;;;5019630;28;20418;-60
2021/04/16 14:50:32;;;;;;;5.20;4.47;;;11.90;33.50;;;;;;5020328;28;20524;-61
2021/04/16 14:53:06;;;;;;;4.80;3.97;;;12.00;34.20;;;;;;5026227;28;20632;-61
2021/04/16 14:55:39;;;;;;;7.43;3.50;;;11.80;34.50;;;;;;5023357;28;20171;-60
2021/04/16 14:58:08;;;;;;;4.57;4.07;;;11.90;35.60;;;;;;5017003;28;20434;-59
2021/04/16 15:00:35;;;;;;;3.87;3.40;;;12.20;35.20;;;;;;5014429;28;20495;-59
2021/04/16 15:03:03;;;;;;;6.00;3.90;;;12.60;35.10;;;;;;5020231;28;20449;-57
2021/04/16 15:05:31;;;;;;;4.73;3.83;;;12.70;34.20;;;;;;5023559;28;20515;-57
2021/04/16 15:08:10;;;;;;;3.87;3.47;;;12.90;33.60;;;;;;5021034;28;20422;-58
2021/04/16 15:10:45;;;;;;;7.07;3.97;;;12.90;33.50;;;;;;5022262;28;20430;-57
2021/04/16 15:13:19;;;;;;;8.70;3.40;;;12.30;33.80;;;;;;5049071;28;20519;-61
2021/04/16 15:15:46;;;;;;;4.60;4.00;;;11.60;34.00;;;;;;5022306;28;20454;-61
2021/04/16 15:18:16;;;;;;;6.10;3.77;;;11.10;34.10;;;;;;5018718;28;20722;-61
2021/04/16 15:20:45;;;;;;;4.83;4.10;;;10.60;34.80;;;;;;5021505;28;21743;-61
2021/04/16 15:23:12;;;;;;;5.83;4.10;;;10.10;35.70;;;;;;5024622;28;21001;-62